Terminal Aerodrome Forecast
Issued by NWS Brownsville, TX

Home | Current Version | Previous Version | Text Only | Print | Product List | Glossary On
Versions: 1 2 3 4 5 6 7 8 9 10 11 12 13 14
836
FTUS44 KBRO 212329
TAFMFE
TAF
KMFE 212329Z 2200/2224 16015G22KT P6SM SCT050
      TEMPO 2200/2202 05015G25KT P6SM -TSRA BKN040CB
     FM220600 12006KT P6SM FEW015
     FM221500 14012G18KT P6SM SCT035=

USA.gov is the U.S. government's official web portal to all federal, state and local government web resources and services.